Aeroporto :
LOGIN :

Iscrizione | Disclaimer

   EN    FR    IT 

 










Sommario :    VFR   VFR Marginale   IFR   IFR Intensivo   IFR Molto Intensivo
Visibilità : 
Base nubi : 
>= 8 km
>= 3000ft
5 / 8 km
1000 / 3000 ft
1500m / 5 km
500 / 1000 ft
800 / 1500m
200 / 500 ft
< 800m
< 200 ft
Simboli :   Temporali  Nebbia  Neve Forte  Precipitazioni Forti  Vento > 20 kt
SIGMETs :   Varie  Temporali  Ghiacco  Turbolenza  Onda orograficha  Ceneri Vulcaniche






- Altitudine del aeroporto : 204 ft
- Codice IATA : AGF


LFBA - Agen

ULTIMO METAR :
  • 190100Z AUTO 07004KT CAVOK 07/01 Q1024

METARs OBSOLETI :
  • 190030Z AUTO 09004KT CAVOK 07/01 Q1023
  • 190000Z AUTO VRB03KT CAVOK 07/02 Q1023
  • 182330Z AUTO 07004KT 030V100 CAVOK 07/02 Q1023
  • 182300Z AUTO 07005KT 040V100 CAVOK 07/03 Q1022
  • 182230Z AUTO VRB02KT CAVOK 06/03 Q1022

TAF TAF LFBA
Valido dal 18 a 18 ore il 19 a 03 ore UTC


181700Z 1818/1903 11010KT CAVOK
BECMG 1818/1820 04004KT OVC040
TEMPO 1820/1824 4000 -RA
BECMG 1900/1902 CAVOK



MetMap, La meteo Aeronautica in un colpo d'occhio ! - Copyright ORBIFLY Dicembre 2007 - Disclaimer

ORBIFLY MET'MAP TEAM :

Programmazione e sviluppo : Alexandra Zaïnal
Concezione : Baudouin d'Aumeries
Aiuto per la programmazione : Marc-Olivier Méhu
Supporto tecnico e logistico : Manuel Goepfert
Aiuto per la traduzione : Arnaldo La Scala

Contatto : metmap@orbifly.com




FONTI E CREDITI :

   NOAA